sensor_id;sensor_type;location;lat;lon;timestamp;P1;durP1;ratioP1;P2;durP2;ratioP2
17596;SDS011;8917;50.942;6.946;2022-11-20T00:02:01;13.00;;;11.37;;
17596;SDS011;8917;50.942;6.946;2022-11-20T00:04:28;12.33;;;10.57;;
17596;SDS011;8917;50.942;6.946;2022-11-20T00:06:55;12.87;;;11.13;;
17596;SDS011;8917;50.942;6.946;2022-11-20T00:09:24;12.53;;;10.63;;
17596;SDS011;8917;50.942;6.946;2022-11-20T00:11:51;12.97;;;11.10;;
17596;SDS011;8917;50.942;6.946;2022-11-20T00:14:19;11.60;;;9.93;;
17596;SDS011;8917;50.942;6.946;2022-11-20T00:16:46;14.57;;;10.90;;
17596;SDS011;8917;50.942;6.946;2022-11-20T00:19:14;14.90;;;11.33;;
17596;SDS011;8917;50.942;6.946;2022-11-20T00:21:41;12.17;;;10.43;;
17596;SDS011;8917;50.942;6.946;2022-11-20T00:24:08;13.03;;;10.90;;
17596;SDS011;8917;50.942;6.946;2022-11-20T00:26:37;12.53;;;11.23;;
17596;SDS011;8917;50.942;6.946;2022-11-20T00:29:05;13.10;;;10.97;;
17596;SDS011;8917;50.942;6.946;2022-11-20T00:31:32;12.53;;;11.17;;
17596;SDS011;8917;50.942;6.946;2022-11-20T00:34:00;13.90;;;11.50;;
17596;SDS011;8917;50.942;6.946;2022-11-20T00:36:28;12.27;;;10.70;;
17596;SDS011;8917;50.942;6.946;2022-11-20T00:38:56;13.27;;;10.90;;
17596;SDS011;8917;50.942;6.946;2022-11-20T00:41:24;14.73;;;11.43;;
17596;SDS011;8917;50.942;6.946;2022-11-20T00:43:54;12.67;;;11.17;;
17596;SDS011;8917;50.942;6.946;2022-11-20T00:46:22;15.20;;;10.67;;
17596;SDS011;8917;50.942;6.946;2022-11-20T00:48:50;12.57;;;10.97;;
17596;SDS011;8917;50.942;6.946;2022-11-20T00:51:18;13.90;;;10.60;;
17596;SDS011;8917;50.942;6.946;2022-11-20T00:53:46;11.90;;;10.43;;
17596;SDS011;8917;50.942;6.946;2022-11-20T00:56:15;12.50;;;10.70;;
17596;SDS011;8917;50.942;6.946;2022-11-20T00:58:43;12.83;;;11.23;;
17596;SDS011;8917;50.942;6.946;2022-11-20T01:01:13;14.50;;;11.33;;
17596;SDS011;8917;50.942;6.946;2022-11-20T01:03:42;12.10;;;10.13;;
17596;SDS011;8917;50.942;6.946;2022-11-20T01:06:10;12.77;;;10.23;;
17596;SDS011;8917;50.942;6.946;2022-11-20T01:08:38;13.53;;;11.20;;
17596;SDS011;8917;50.942;6.946;2022-11-20T01:11:07;12.60;;;10.47;;
17596;SDS011;8917;50.942;6.946;2022-11-20T01:13:35;12.70;;;10.87;;
17596;SDS011;8917;50.942;6.946;2022-11-20T01:16:06;13.07;;;11.17;;
17596;SDS011;8917;50.942;6.946;2022-11-20T01:18:36;12.47;;;11.10;;
17596;SDS011;8917;50.942;6.946;2022-11-20T01:21:04;12.53;;;10.87;;
17596;SDS011;8917;50.942;6.946;2022-11-20T01:23:33;11.40;;;10.03;;
17596;SDS011;8917;50.942;6.946;2022-11-20T01:26:01;13.77;;;11.03;;
17596;SDS011;8917;50.942;6.946;2022-11-20T01:28:29;14.10;;;10.67;;
17596;SDS011;8917;50.942;6.946;2022-11-20T01:30:57;12.30;;;10.83;;
17596;SDS011;8917;50.942;6.946;2022-11-20T01:33:24;13.00;;;10.90;;
17596;SDS011;8917;50.942;6.946;2022-11-20T01:35:53;13.30;;;10.50;;
17596;SDS011;8917;50.942;6.946;2022-11-20T01:38:30;13.67;;;10.90;;
17596;SDS011;8917;50.942;6.946;2022-11-20T01:40:57;13.27;;;10.90;;
17596;SDS011;8917;50.942;6.946;2022-11-20T01:43:25;13.33;;;11.17;;
17596;SDS011;8917;50.942;6.946;2022-11-20T01:45:56;13.60;;;11.63;;
17596;SDS011;8917;50.942;6.946;2022-11-20T01:48:25;13.30;;;10.90;;
17596;SDS011;8917;50.942;6.946;2022-11-20T01:50:55;12.40;;;10.70;;
17596;SDS011;8917;50.942;6.946;2022-11-20T01:53:25;14.30;;;11.47;;
17596;SDS011;8917;50.942;6.946;2022-11-20T01:55:56;12.90;;;11.13;;
17596;SDS011;8917;50.942;6.946;2022-11-20T01:58:25;13.00;;;10.67;;
17596;SDS011;8917;50.942;6.946;2022-11-20T02:00:54;14.70;;;11.67;;
17596;SDS011;8917;50.942;6.946;2022-11-20T02:03:22;12.80;;;11.30;;
17596;SDS011;8917;50.942;6.946;2022-11-20T02:05:51;12.50;;;10.77;;
17596;SDS011;8917;50.942;6.946;2022-11-20T02:08:20;12.20;;;10.37;;
17596;SDS011;8917;50.942;6.946;2022-11-20T02:10:49;14.73;;;10.77;;
17596;SDS011;8917;50.942;6.946;2022-11-20T02:13:16;11.80;;;10.23;;
17596;SDS011;8917;50.942;6.946;2022-11-20T02:16:01;14.13;;;11.43;;
17596;SDS011;8917;50.942;6.946;2022-11-20T02:18:29;14.73;;;11.40;;
17596;SDS011;8917;50.942;6.946;2022-11-20T02:20:58;13.40;;;10.83;;
17596;SDS011;8917;50.942;6.946;2022-11-20T02:23:29;13.77;;;11.40;;
17596;SDS011;8917;50.942;6.946;2022-11-20T02:26:02;14.10;;;11.37;;
17596;SDS011;8917;50.942;6.946;2022-11-20T02:28:30;13.10;;;10.50;;
17596;SDS011;8917;50.942;6.946;2022-11-20T02:30:58;13.60;;;10.23;;
17596;SDS011;8917;50.942;6.946;2022-11-20T02:33:25;13.93;;;11.53;;
17596;SDS011;8917;50.942;6.946;2022-11-20T02:35:53;13.03;;;11.33;;
17596;SDS011;8917;50.942;6.946;2022-11-20T02:38:20;12.83;;;11.10;;
17596;SDS011;8917;50.942;6.946;2022-11-20T02:40:48;12.93;;;11.07;;
17596;SDS011;8917;50.942;6.946;2022-11-20T02:43:17;12.23;;;10.27;;
17596;SDS011;8917;50.942;6.946;2022-11-20T02:45:44;13.10;;;10.40;;
17596;SDS011;8917;50.942;6.946;2022-11-20T02:48:12;12.27;;;10.97;;
17596;SDS011;8917;50.942;6.946;2022-11-20T02:50:41;14.10;;;11.13;;
17596;SDS011;8917;50.942;6.946;2022-11-20T02:53:09;12.73;;;10.37;;
17596;SDS011;8917;50.942;6.946;2022-11-20T02:55:36;12.43;;;10.83;;
17596;SDS011;8917;50.942;6.946;2022-11-20T02:58:03;12.30;;;10.47;;
17596;SDS011;8917;50.942;6.946;2022-11-20T03:00:32;14.73;;;10.93;;
17596;SDS011;8917;50.942;6.946;2022-11-20T03:03:00;13.17;;;10.47;;
17596;SDS011;8917;50.942;6.946;2022-11-20T03:05:27;13.37;;;10.67;;
17596;SDS011;8917;50.942;6.946;2022-11-20T03:07:55;12.53;;;10.60;;
17596;SDS011;8917;50.942;6.946;2022-11-20T03:10:22;12.60;;;10.83;;
17596;SDS011;8917;50.942;6.946;2022-11-20T03:12:52;13.00;;;10.80;;
17596;SDS011;8917;50.942;6.946;2022-11-20T03:15:19;12.87;;;10.93;;
17596;SDS011;8917;50.942;6.946;2022-11-20T03:17:48;11.40;;;10.20;;
17596;SDS011;8917;50.942;6.946;2022-11-20T03:20:15;13.03;;;10.80;;
17596;SDS011;8917;50.942;6.946;2022-11-20T03:22:43;12.20;;;10.60;;
17596;SDS011;8917;50.942;6.946;2022-11-20T03:25:10;11.37;;;10.03;;
17596;SDS011;8917;50.942;6.946;2022-11-20T03:27:37;12.70;;;10.40;;
17596;SDS011;8917;50.942;6.946;2022-11-20T03:30:05;12.00;;;10.57;;
17596;SDS011;8917;50.942;6.946;2022-11-20T03:32:32;13.10;;;10.93;;
17596;SDS011;8917;50.942;6.946;2022-11-20T03:35:01;12.83;;;11.07;;
17596;SDS011;8917;50.942;6.946;2022-11-20T03:37:29;13.63;;;11.47;;
17596;SDS011;8917;50.942;6.946;2022-11-20T03:39:56;14.83;;;11.73;;
17596;SDS011;8917;50.942;6.946;2022-11-20T03:42:23;13.13;;;11.10;;
17596;SDS011;8917;50.942;6.946;2022-11-20T03:45:08;12.13;;;10.67;;
17596;SDS011;8917;50.942;6.946;2022-11-20T03:47:36;14.47;;;10.90;;
17596;SDS011;8917;50.942;6.946;2022-11-20T03:50:05;12.10;;;10.80;;
17596;SDS011;8917;50.942;6.946;2022-11-20T03:52:32;14.07;;;11.17;;
17596;SDS011;8917;50.942;6.946;2022-11-20T03:54:59;12.80;;;11.37;;
17596;SDS011;8917;50.942;6.946;2022-11-20T03:57:27;12.43;;;10.53;;
17596;SDS011;8917;50.942;6.946;2022-11-20T03:59:54;12.20;;;10.90;;
17596;SDS011;8917;50.942;6.946;2022-11-20T04:02:21;13.47;;;10.80;;
17596;SDS011;8917;50.942;6.946;2022-11-20T04:04:49;12.67;;;10.90;;
17596;SDS011;8917;50.942;6.946;2022-11-20T04:07:17;13.07;;;10.73;;
17596;SDS011;8917;50.942;6.946;2022-11-20T04:09:45;13.33;;;11.40;;
17596;SDS011;8917;50.942;6.946;2022-11-20T04:12:13;14.27;;;11.57;;
17596;SDS011;8917;50.942;6.946;2022-11-20T04:14:40;13.03;;;11.07;;
17596;SDS011;8917;50.942;6.946;2022-11-20T04:17:08;13.30;;;11.47;;
17596;SDS011;8917;50.942;6.946;2022-11-20T04:19:35;13.70;;;11.20;;
17596;SDS011;8917;50.942;6.946;2022-11-20T04:22:02;13.50;;;11.93;;
17596;SDS011;8917;50.942;6.946;2022-11-20T04:24:31;14.50;;;11.87;;
17596;SDS011;8917;50.942;6.946;2022-11-20T04:26:58;17.10;;;12.20;;
17596;SDS011;8917;50.942;6.946;2022-11-20T04:29:26;13.33;;;11.17;;
17596;SDS011;8917;50.942;6.946;2022-11-20T04:31:53;14.30;;;12.03;;
17596;SDS011;8917;50.942;6.946;2022-11-20T04:34:20;14.77;;;11.70;;
17596;SDS011;8917;50.942;6.946;2022-11-20T04:36:48;14.40;;;11.67;;
17596;SDS011;8917;50.942;6.946;2022-11-20T04:39:15;15.90;;;11.73;;
17596;SDS011;8917;50.942;6.946;2022-11-20T04:41:44;14.27;;;11.87;;
17596;SDS011;8917;50.942;6.946;2022-11-20T04:44:11;17.77;;;12.87;;
17596;SDS011;8917;50.942;6.946;2022-11-20T04:46:39;16.07;;;13.10;;
17596;SDS011;8917;50.942;6.946;2022-11-20T04:49:07;15.97;;;12.57;;
17596;SDS011;8917;50.942;6.946;2022-11-20T04:51:34;14.97;;;12.00;;
17596;SDS011;8917;50.942;6.946;2022-11-20T04:54:02;16.40;;;12.73;;
17596;SDS011;8917;50.942;6.946;2022-11-20T04:56:29;15.30;;;12.73;;
17596;SDS011;8917;50.942;6.946;2022-11-20T04:59:01;16.63;;;13.07;;
17596;SDS011;8917;50.942;6.946;2022-11-20T05:01:28;15.30;;;12.13;;
17596;SDS011;8917;50.942;6.946;2022-11-20T05:03:56;16.97;;;12.67;;
17596;SDS011;8917;50.942;6.946;2022-11-20T05:06:23;15.87;;;12.90;;
17596;SDS011;8917;50.942;6.946;2022-11-20T05:08:50;15.73;;;12.00;;
17596;SDS011;8917;50.942;6.946;2022-11-20T05:11:18;14.00;;;11.33;;
17596;SDS011;8917;50.942;6.946;2022-11-20T05:13:46;18.13;;;12.77;;
17596;SDS011;8917;50.942;6.946;2022-11-20T05:16:16;16.50;;;12.70;;
17596;SDS011;8917;50.942;6.946;2022-11-20T05:18:43;16.87;;;12.83;;
17596;SDS011;8917;50.942;6.946;2022-11-20T05:21:11;16.30;;;12.97;;
17596;SDS011;8917;50.942;6.946;2022-11-20T05:23:39;15.90;;;12.87;;
17596;SDS011;8917;50.942;6.946;2022-11-20T05:26:07;17.43;;;13.27;;
17596;SDS011;8917;50.942;6.946;2022-11-20T05:28:35;16.80;;;14.00;;
17596;SDS011;8917;50.942;6.946;2022-11-20T05:31:06;14.93;;;12.40;;
17596;SDS011;8917;50.942;6.946;2022-11-20T05:33:35;14.77;;;12.47;;
17596;SDS011;8917;50.942;6.946;2022-11-20T05:36:02;16.53;;;12.70;;
17596;SDS011;8917;50.942;6.946;2022-11-20T05:38:30;15.83;;;12.93;;
17596;SDS011;8917;50.942;6.946;2022-11-20T05:41:02;16.10;;;12.47;;
17596;SDS011;8917;50.942;6.946;2022-11-20T05:43:31;15.87;;;12.77;;
17596;SDS011;8917;50.942;6.946;2022-11-20T05:45:59;14.90;;;12.50;;
17596;SDS011;8917;50.942;6.946;2022-11-20T05:48:26;15.37;;;12.30;;
17596;SDS011;8917;50.942;6.946;2022-11-20T05:50:55;15.27;;;12.87;;
17596;SDS011;8917;50.942;6.946;2022-11-20T05:53:23;15.73;;;12.57;;
17596;SDS011;8917;50.942;6.946;2022-11-20T05:55:56;16.80;;;12.50;;
17596;SDS011;8917;50.942;6.946;2022-11-20T05:58:23;14.63;;;12.23;;
17596;SDS011;8917;50.942;6.946;2022-11-20T06:00:51;16.70;;;13.10;;
17596;SDS011;8917;50.942;6.946;2022-11-20T06:03:18;18.20;;;12.90;;
17596;SDS011;8917;50.942;6.946;2022-11-20T06:05:46;17.87;;;13.03;;
17596;SDS011;8917;50.942;6.946;2022-11-20T06:08:15;18.77;;;14.07;;
17596;SDS011;8917;50.942;6.946;2022-11-20T06:10:43;16.03;;;12.70;;
17596;SDS011;8917;50.942;6.946;2022-11-20T06:13:10;16.57;;;14.13;;
17596;SDS011;8917;50.942;6.946;2022-11-20T06:15:37;18.80;;;14.23;;
17596;SDS011;8917;50.942;6.946;2022-11-20T06:18:04;17.10;;;13.23;;
17596;SDS011;8917;50.942;6.946;2022-11-20T06:20:32;18.67;;;14.27;;
17596;SDS011;8917;50.942;6.946;2022-11-20T06:22:59;19.47;;;14.17;;
17596;SDS011;8917;50.942;6.946;2022-11-20T06:25:28;19.23;;;14.60;;
17596;SDS011;8917;50.942;6.946;2022-11-20T06:27:56;18.87;;;14.50;;
17596;SDS011;8917;50.942;6.946;2022-11-20T06:30:23;20.07;;;14.70;;
17596;SDS011;8917;50.942;6.946;2022-11-20T06:32:50;20.10;;;14.97;;
17596;SDS011;8917;50.942;6.946;2022-11-20T06:35:18;21.77;;;15.50;;
17596;SDS011;8917;50.942;6.946;2022-11-20T06:37:45;18.93;;;14.07;;
17596;SDS011;8917;50.942;6.946;2022-11-20T06:40:12;18.80;;;14.17;;
17596;SDS011;8917;50.942;6.946;2022-11-20T06:42:41;19.87;;;14.73;;
17596;SDS011;8917;50.942;6.946;2022-11-20T06:45:09;19.73;;;15.00;;
17596;SDS011;8917;50.942;6.946;2022-11-20T06:47:36;18.50;;;13.50;;
17596;SDS011;8917;50.942;6.946;2022-11-20T06:50:04;18.53;;;14.17;;
17596;SDS011;8917;50.942;6.946;2022-11-20T06:52:31;18.70;;;14.37;;
17596;SDS011;8917;50.942;6.946;2022-11-20T06:54:59;16.00;;;13.67;;
17596;SDS011;8917;50.942;6.946;2022-11-20T06:57:27;20.40;;;14.77;;
17596;SDS011;8917;50.942;6.946;2022-11-20T06:59:55;19.00;;;14.80;;
17596;SDS011;8917;50.942;6.946;2022-11-20T07:02:23;18.43;;;13.53;;
17596;SDS011;8917;50.942;6.946;2022-11-20T07:04:50;21.00;;;13.90;;
17596;SDS011;8917;50.942;6.946;2022-11-20T07:07:17;17.00;;;13.30;;
17596;SDS011;8917;50.942;6.946;2022-11-20T07:09:45;17.93;;;13.97;;
17596;SDS011;8917;50.942;6.946;2022-11-20T07:12:12;18.93;;;14.43;;
17596;SDS011;8917;50.942;6.946;2022-11-20T07:14:39;18.00;;;13.13;;
17596;SDS011;8917;50.942;6.946;2022-11-20T07:17:08;16.43;;;13.10;;
17596;SDS011;8917;50.942;6.946;2022-11-20T07:19:35;17.37;;;13.00;;
17596;SDS011;8917;50.942;6.946;2022-11-20T07:22:03;19.93;;;13.63;;
17596;SDS011;8917;50.942;6.946;2022-11-20T07:24:30;15.93;;;12.47;;
17596;SDS011;8917;50.942;6.946;2022-11-20T07:26:57;14.87;;;11.73;;
17596;SDS011;8917;50.942;6.946;2022-11-20T07:29:25;15.73;;;11.77;;
17596;SDS011;8917;50.942;6.946;2022-11-20T07:31:52;16.70;;;12.23;;
17596;SDS011;8917;50.942;6.946;2022-11-20T07:34:23;15.47;;;12.03;;
17596;SDS011;8917;50.942;6.946;2022-11-20T07:36:50;16.57;;;11.50;;
17596;SDS011;8917;50.942;6.946;2022-11-20T07:39:17;15.67;;;12.50;;
17596;SDS011;8917;50.942;6.946;2022-11-20T07:41:45;16.40;;;10.63;;
17596;SDS011;8917;50.942;6.946;2022-11-20T07:44:12;14.50;;;11.03;;
17596;SDS011;8917;50.942;6.946;2022-11-20T07:46:39;13.90;;;11.03;;
17596;SDS011;8917;50.942;6.946;2022-11-20T07:49:07;14.97;;;11.50;;
17596;SDS011;8917;50.942;6.946;2022-11-20T07:51:35;16.00;;;11.57;;
17596;SDS011;8917;50.942;6.946;2022-11-20T07:54:03;13.07;;;10.77;;
17596;SDS011;8917;50.942;6.946;2022-11-20T07:56:30;13.20;;;10.20;;
17596;SDS011;8917;50.942;6.946;2022-11-20T07:58:58;14.50;;;11.30;;
17596;SDS011;8917;50.942;6.946;2022-11-20T08:01:25;13.77;;;11.17;;
17596;SDS011;8917;50.942;6.946;2022-11-20T08:03:52;15.03;;;11.87;;
17596;SDS011;8917;50.942;6.946;2022-11-20T08:06:20;14.53;;;10.97;;
17596;SDS011;8917;50.942;6.946;2022-11-20T08:08:49;15.63;;;10.70;;
17596;SDS011;8917;50.942;6.946;2022-11-20T08:11:16;13.57;;;10.93;;
17596;SDS011;8917;50.942;6.946;2022-11-20T08:14:00;14.20;;;10.83;;
17596;SDS011;8917;50.942;6.946;2022-11-20T08:16:41;14.50;;;10.47;;
17596;SDS011;8917;50.942;6.946;2022-11-20T08:19:09;14.53;;;10.40;;
17596;SDS011;8917;50.942;6.946;2022-11-20T08:21:36;12.07;;;9.97;;
17596;SDS011;8917;50.942;6.946;2022-11-20T08:24:05;15.73;;;11.90;;
17596;SDS011;8917;50.942;6.946;2022-11-20T08:26:33;16.87;;;12.83;;
17596;SDS011;8917;50.942;6.946;2022-11-20T08:29:00;16.43;;;12.17;;
17596;SDS011;8917;50.942;6.946;2022-11-20T08:31:28;14.70;;;11.93;;
17596;SDS011;8917;50.942;6.946;2022-11-20T08:33:56;17.23;;;13.50;;
17596;SDS011;8917;50.942;6.946;2022-11-20T08:36:23;14.07;;;11.87;;
17596;SDS011;8917;50.942;6.946;2022-11-20T08:38:51;17.13;;;12.77;;
17596;SDS011;8917;50.942;6.946;2022-11-20T08:41:20;16.90;;;12.40;;
17596;SDS011;8917;50.942;6.946;2022-11-20T08:43:52;16.43;;;13.17;;
17596;SDS011;8917;50.942;6.946;2022-11-20T08:46:21;17.30;;;13.77;;
17596;SDS011;8917;50.942;6.946;2022-11-20T08:48:48;18.93;;;13.80;;
17596;SDS011;8917;50.942;6.946;2022-11-20T08:51:15;19.00;;;12.93;;
17596;SDS011;8917;50.942;6.946;2022-11-20T08:53:43;17.80;;;13.17;;
17596;SDS011;8917;50.942;6.946;2022-11-20T08:56:10;18.80;;;13.97;;
17596;SDS011;8917;50.942;6.946;2022-11-20T08:58:39;18.83;;;14.57;;
17596;SDS011;8917;50.942;6.946;2022-11-20T09:01:07;19.87;;;13.83;;
17596;SDS011;8917;50.942;6.946;2022-11-20T09:03:34;15.73;;;11.90;;
17596;SDS011;8917;50.942;6.946;2022-11-20T09:06:03;18.63;;;14.37;;
17596;SDS011;8917;50.942;6.946;2022-11-20T09:08:32;17.20;;;14.03;;
17596;SDS011;8917;50.942;6.946;2022-11-20T09:11:00;19.17;;;14.60;;
17596;SDS011;8917;50.942;6.946;2022-11-20T09:13:28;17.83;;;14.00;;
17596;SDS011;8917;50.942;6.946;2022-11-20T09:15:57;18.47;;;13.83;;
17596;SDS011;8917;50.942;6.946;2022-11-20T09:18:25;22.43;;;14.60;;
17596;SDS011;8917;50.942;6.946;2022-11-20T09:20:55;18.63;;;14.37;;
17596;SDS011;8917;50.942;6.946;2022-11-20T09:23:23;19.67;;;13.97;;
17596;SDS011;8917;50.942;6.946;2022-11-20T09:25:50;20.67;;;14.37;;
17596;SDS011;8917;50.942;6.946;2022-11-20T09:28:20;18.70;;;14.47;;
17596;SDS011;8917;50.942;6.946;2022-11-20T09:30:47;20.67;;;14.27;;
17596;SDS011;8917;50.942;6.946;2022-11-20T09:33:16;20.63;;;14.60;;
17596;SDS011;8917;50.942;6.946;2022-11-20T09:35:44;19.57;;;13.80;;
17596;SDS011;8917;50.942;6.946;2022-11-20T09:38:11;19.20;;;13.77;;
17596;SDS011;8917;50.942;6.946;2022-11-20T09:40:40;21.60;;;13.37;;
17596;SDS011;8917;50.942;6.946;2022-11-20T09:43:12;16.43;;;13.07;;
17596;SDS011;8917;50.942;6.946;2022-11-20T09:45:46;17.50;;;13.47;;
17596;SDS011;8917;50.942;6.946;2022-11-20T09:48:24;18.87;;;12.97;;
17596;SDS011;8917;50.942;6.946;2022-11-20T09:50:57;17.77;;;13.90;;
17596;SDS011;8917;50.942;6.946;2022-11-20T09:53:30;17.47;;;13.80;;
17596;SDS011;8917;50.942;6.946;2022-11-20T09:56:00;19.47;;;14.07;;
17596;SDS011;8917;50.942;6.946;2022-11-20T09:58:29;18.50;;;14.17;;
17596;SDS011;8917;50.942;6.946;2022-11-20T10:01:00;19.13;;;14.47;;
17596;SDS011;8917;50.942;6.946;2022-11-20T10:03:35;16.73;;;12.80;;
17596;SDS011;8917;50.942;6.946;2022-11-20T10:06:07;19.20;;;14.53;;
17596;SDS011;8917;50.942;6.946;2022-11-20T10:08:39;18.67;;;14.90;;
17596;SDS011;8917;50.942;6.946;2022-11-20T10:11:10;17.93;;;14.20;;
17596;SDS011;8917;50.942;6.946;2022-11-20T10:13:43;19.13;;;13.87;;
17596;SDS011;8917;50.942;6.946;2022-11-20T10:16:17;19.17;;;13.40;;
17596;SDS011;8917;50.942;6.946;2022-11-20T10:18:54;18.93;;;14.17;;
17596;SDS011;8917;50.942;6.946;2022-11-20T10:21:27;20.20;;;14.27;;
17596;SDS011;8917;50.942;6.946;2022-11-20T10:24:23;16.57;;;12.67;;
17596;SDS011;8917;50.942;6.946;2022-11-20T10:26:53;17.63;;;13.70;;
17596;SDS011;8917;50.942;6.946;2022-11-20T10:29:25;21.13;;;14.23;;
17596;SDS011;8917;50.942;6.946;2022-11-20T10:31:56;17.60;;;13.67;;
17596;SDS011;8917;50.942;6.946;2022-11-20T10:34:29;18.50;;;14.33;;
17596;SDS011;8917;50.942;6.946;2022-11-20T10:36:59;19.77;;;14.67;;
17596;SDS011;8917;50.942;6.946;2022-11-20T10:39:31;19.80;;;14.57;;
17596;SDS011;8917;50.942;6.946;2022-11-20T10:41:59;19.90;;;15.03;;
17596;SDS011;8917;50.942;6.946;2022-11-20T10:44:27;21.83;;;15.70;;
17596;SDS011;8917;50.942;6.946;2022-11-20T10:47:17;20.67;;;15.03;;
17596;SDS011;8917;50.942;6.946;2022-11-20T10:49:48;21.33;;;14.87;;
17596;SDS011;8917;50.942;6.946;2022-11-20T10:52:17;18.73;;;14.57;;
17596;SDS011;8917;50.942;6.946;2022-11-20T10:54:49;18.43;;;14.07;;
17596;SDS011;8917;50.942;6.946;2022-11-20T10:57:26;20.40;;;15.30;;
17596;SDS011;8917;50.942;6.946;2022-11-20T11:00:03;19.40;;;14.57;;
17596;SDS011;8917;50.942;6.946;2022-11-20T11:02:32;21.33;;;15.60;;
17596;SDS011;8917;50.942;6.946;2022-11-20T11:05:04;21.27;;;15.37;;
17596;SDS011;8917;50.942;6.946;2022-11-20T11:07:36;19.00;;;14.27;;
17596;SDS011;8917;50.942;6.946;2022-11-20T11:10:12;21.87;;;14.70;;
17596;SDS011;8917;50.942;6.946;2022-11-20T11:12:42;19.67;;;14.67;;
17596;SDS011;8917;50.942;6.946;2022-11-20T11:15:11;17.73;;;13.70;;
17596;SDS011;8917;50.942;6.946;2022-11-20T11:17:45;20.07;;;14.40;;
17596;SDS011;8917;50.942;6.946;2022-11-20T11:20:18;21.63;;;15.33;;
17596;SDS011;8917;50.942;6.946;2022-11-20T11:22:47;21.17;;;14.90;;
17596;SDS011;8917;50.942;6.946;2022-11-20T11:25:22;18.50;;;13.70;;
17596;SDS011;8917;50.942;6.946;2022-11-20T11:27:53;18.73;;;14.00;;
17596;SDS011;8917;50.942;6.946;2022-11-20T11:30:21;19.00;;;14.77;;
17596;SDS011;8917;50.942;6.946;2022-11-20T11:32:49;18.10;;;13.93;;
17596;SDS011;8917;50.942;6.946;2022-11-20T11:35:23;19.07;;;13.87;;
17596;SDS011;8917;50.942;6.946;2022-11-20T11:37:51;19.13;;;14.47;;
17596;SDS011;8917;50.942;6.946;2022-11-20T11:40:22;18.60;;;13.70;;
17596;SDS011;8917;50.942;6.946;2022-11-20T11:42:56;21.33;;;14.50;;
17596;SDS011;8917;50.942;6.946;2022-11-20T11:45:24;19.10;;;14.40;;
17596;SDS011;8917;50.942;6.946;2022-11-20T11:47:51;19.20;;;14.03;;
17596;SDS011;8917;50.942;6.946;2022-11-20T11:50:20;21.90;;;13.93;;
17596;SDS011;8917;50.942;6.946;2022-11-20T11:52:50;18.97;;;14.40;;
17596;SDS011;8917;50.942;6.946;2022-11-20T11:55:25;19.53;;;14.00;;
17596;SDS011;8917;50.942;6.946;2022-11-20T11:57:54;18.83;;;14.10;;
17596;SDS011;8917;50.942;6.946;2022-11-20T12:00:24;18.47;;;13.87;;
17596;SDS011;8917;50.942;6.946;2022-11-20T12:02:56;18.83;;;13.97;;
17596;SDS011;8917;50.942;6.946;2022-11-20T12:05:28;19.50;;;13.97;;
17596;SDS011;8917;50.942;6.946;2022-11-20T12:07:58;19.17;;;14.07;;
17596;SDS011;8917;50.942;6.946;2022-11-20T12:10:33;18.07;;;13.47;;
17596;SDS011;8917;50.942;6.946;2022-11-20T12:13:08;19.60;;;15.07;;
17596;SDS011;8917;50.942;6.946;2022-11-20T12:15:39;19.00;;;14.83;;
17596;SDS011;8917;50.942;6.946;2022-11-20T12:18:10;23.30;;;14.80;;
17596;SDS011;8917;50.942;6.946;2022-11-20T12:20:42;19.03;;;13.77;;
17596;SDS011;8917;50.942;6.946;2022-11-20T12:23:14;20.53;;;14.97;;
17596;SDS011;8917;50.942;6.946;2022-11-20T12:25:43;21.03;;;14.90;;
17596;SDS011;8917;50.942;6.946;2022-11-20T12:28:28;19.17;;;13.90;;
17596;SDS011;8917;50.942;6.946;2022-11-20T12:31:08;21.87;;;15.67;;
17596;SDS011;8917;50.942;6.946;2022-11-20T12:33:44;19.17;;;14.07;;
17596;SDS011;8917;50.942;6.946;2022-11-20T12:36:17;19.23;;;14.30;;
17596;SDS011;8917;50.942;6.946;2022-11-20T12:39:02;22.93;;;14.67;;
17596;SDS011;8917;50.942;6.946;2022-11-20T12:41:45;20.07;;;14.43;;
17596;SDS011;8917;50.942;6.946;2022-11-20T12:44:36;18.67;;;13.63;;
17596;SDS011;8917;50.942;6.946;2022-11-20T12:47:28;18.00;;;13.53;;
17596;SDS011;8917;50.942;6.946;2022-11-20T12:50:00;22.40;;;14.77;;
17596;SDS011;8917;50.942;6.946;2022-11-20T12:52:34;18.93;;;13.67;;
17596;SDS011;8917;50.942;6.946;2022-11-20T12:55:12;16.87;;;12.37;;
17596;SDS011;8917;50.942;6.946;2022-11-20T12:57:45;22.13;;;15.17;;
17596;SDS011;8917;50.942;6.946;2022-11-20T13:00:14;18.83;;;13.63;;
17596;SDS011;8917;50.942;6.946;2022-11-20T13:02:50;19.87;;;13.40;;
17596;SDS011;8917;50.942;6.946;2022-11-20T13:05:26;19.70;;;14.17;;
17596;SDS011;8917;50.942;6.946;2022-11-20T13:07:55;19.23;;;13.70;;
17596;SDS011;8917;50.942;6.946;2022-11-20T13:10:26;21.40;;;14.40;;
17596;SDS011;8917;50.942;6.946;2022-11-20T13:12:59;17.53;;;14.17;;
17596;SDS011;8917;50.942;6.946;2022-11-20T13:15:36;19.40;;;13.70;;
17596;SDS011;8917;50.942;6.946;2022-11-20T13:18:12;23.73;;;14.27;;
17596;SDS011;8917;50.942;6.946;2022-11-20T13:20:41;19.27;;;14.47;;
17596;SDS011;8917;50.942;6.946;2022-11-20T13:23:09;21.70;;;15.00;;
17596;SDS011;8917;50.942;6.946;2022-11-20T13:25:38;22.27;;;14.60;;
17596;SDS011;8917;50.942;6.946;2022-11-20T13:30:48;18.67;;;13.83;;
17596;SDS011;8917;50.942;6.946;2022-11-20T13:33:22;18.30;;;13.10;;
17596;SDS011;8917;50.942;6.946;2022-11-20T13:35:55;18.67;;;13.13;;
17596;SDS011;8917;50.942;6.946;2022-11-20T13:38:22;18.27;;;12.60;;
17596;SDS011;8917;50.942;6.946;2022-11-20T13:40:53;17.37;;;13.17;;
17596;SDS011;8917;50.942;6.946;2022-11-20T13:43:27;18.17;;;13.40;;
17596;SDS011;8917;50.942;6.946;2022-11-20T13:45:56;21.43;;;13.93;;
17596;SDS011;8917;50.942;6.946;2022-11-20T13:48:25;19.87;;;13.93;;
17596;SDS011;8917;50.942;6.946;2022-11-20T13:50:55;18.97;;;13.87;;
17596;SDS011;8917;50.942;6.946;2022-11-20T13:53:28;19.33;;;13.43;;
17596;SDS011;8917;50.942;6.946;2022-11-20T13:56:03;19.17;;;13.70;;
17596;SDS011;8917;50.942;6.946;2022-11-20T13:58:36;19.90;;;13.87;;
17596;SDS011;8917;50.942;6.946;2022-11-20T14:01:08;18.33;;;12.63;;
17596;SDS011;8917;50.942;6.946;2022-11-20T14:03:36;18.90;;;13.73;;
17596;SDS011;8917;50.942;6.946;2022-11-20T14:06:10;18.70;;;13.23;;
17596;SDS011;8917;50.942;6.946;2022-11-20T14:08:40;18.17;;;13.23;;
17596;SDS011;8917;50.942;6.946;2022-11-20T14:11:14;17.80;;;13.03;;
17596;SDS011;8917;50.942;6.946;2022-11-20T14:13:56;18.37;;;13.43;;
17596;SDS011;8917;50.942;6.946;2022-11-20T14:16:25;18.30;;;13.03;;
17596;SDS011;8917;50.942;6.946;2022-11-20T14:18:52;16.93;;;13.00;;
17596;SDS011;8917;50.942;6.946;2022-11-20T14:21:28;17.13;;;12.50;;
17596;SDS011;8917;50.942;6.946;2022-11-20T14:24:03;18.20;;;13.27;;
17596;SDS011;8917;50.942;6.946;2022-11-20T14:26:32;17.50;;;13.23;;
17596;SDS011;8917;50.942;6.946;2022-11-20T14:29:00;21.17;;;12.67;;
17596;SDS011;8917;50.942;6.946;2022-11-20T14:31:27;16.83;;;11.73;;
17596;SDS011;8917;50.942;6.946;2022-11-20T14:33:55;17.93;;;13.23;;
17596;SDS011;8917;50.942;6.946;2022-11-20T14:36:23;17.93;;;12.97;;
17596;SDS011;8917;50.942;6.946;2022-11-20T14:38:51;16.00;;;12.50;;
17596;SDS011;8917;50.942;6.946;2022-11-20T14:41:20;16.60;;;12.23;;
17596;SDS011;8917;50.942;6.946;2022-11-20T14:43:49;18.60;;;13.53;;
17596;SDS011;8917;50.942;6.946;2022-11-20T14:46:18;17.37;;;12.20;;
17596;SDS011;8917;50.942;6.946;2022-11-20T14:48:45;17.40;;;12.10;;
17596;SDS011;8917;50.942;6.946;2022-11-20T14:51:23;18.67;;;12.70;;
17596;SDS011;8917;50.942;6.946;2022-11-20T14:53:50;15.70;;;12.53;;